createdAt,value
2018-09-23T00:00:46.060Z,22.59
2018-09-23T00:01:46.641Z,22.62
2018-09-23T00:02:47.273Z,22.66
2018-09-23T00:03:47.852Z,22.63
2018-09-23T00:04:48.437Z,22.69
2018-09-23T00:05:49.017Z,22.65
2018-09-23T00:06:49.596Z,22.59
2018-09-23T00:07:50.181Z,22.63
2018-09-23T00:08:50.803Z,22.60
2018-09-23T00:09:51.433Z,22.62
2018-09-23T00:11:36.628Z,22.66
2018-09-23T00:12:37.209Z,22.59
2018-09-23T00:13:37.790Z,22.62
2018-09-23T00:14:38.374Z,22.60
2018-09-23T00:15:38.997Z,22.60
2018-09-23T00:16:39.577Z,22.60
2018-09-23T00:17:40.159Z,22.57
2018-09-23T00:18:40.740Z,22.62
2018-09-23T00:19:41.370Z,22.62
2018-09-23T00:20:41.951Z,22.59
2018-09-23T00:21:42.533Z,22.62
2018-09-23T00:22:43.114Z,22.55
2018-09-23T00:23:43.695Z,22.57
2018-09-23T00:24:44.277Z,22.65
2018-09-23T00:25:44.857Z,22.65
2018-09-23T00:26:45.439Z,22.65
2018-09-23T00:27:46.064Z,22.65
2018-09-23T00:28:46.644Z,22.65
2018-09-23T00:29:47.229Z,22.59
2018-09-23T00:30:47.899Z,22.57
2018-09-23T00:31:48.478Z,22.63
2018-09-23T00:32:49.057Z,22.65
2018-09-23T00:33:49.638Z,22.62
2018-09-23T00:34:50.459Z,22.59
2018-09-23T00:35:51.041Z,22.65
2018-09-23T00:36:51.618Z,22.51
2018-09-23T00:37:52.200Z,22.59
2018-09-23T00:38:52.784Z,22.50
2018-09-23T00:39:53.413Z,22.55
2018-09-23T00:40:53.993Z,22.54
2018-09-23T00:41:54.572Z,22.54
2018-09-23T00:42:55.155Z,22.55
2018-09-23T00:43:55.736Z,22.51
2018-09-23T00:44:56.318Z,22.51
2018-09-23T00:45:56.899Z,22.55
2018-09-23T00:46:57.530Z,22.51
2018-09-23T00:47:58.111Z,22.51
2018-09-23T00:48:58.690Z,22.48
2018-09-23T00:49:59.273Z,22.51
2018-09-23T00:50:59.904Z,22.51
2018-09-23T00:52:00.525Z,22.50
2018-09-23T00:53:01.108Z,22.53
2018-09-23T00:54:01.685Z,22.51
2018-09-23T00:55:02.268Z,22.50
2018-09-23T00:56:02.846Z,22.51
2018-09-23T00:57:03.428Z,22.50
2018-09-23T00:58:04.008Z,22.44
2018-09-23T00:59:49.103Z,22.48
2018-09-23T01:00:49.686Z,22.43
2018-09-23T01:01:50.317Z,22.48
2018-09-23T01:02:50.947Z,22.44
2018-09-23T01:03:51.529Z,22.41
2018-09-23T01:04:52.109Z,22.36
2018-09-23T01:05:52.732Z,22.47
2018-09-23T01:06:53.313Z,22.48
2018-09-23T01:07:53.893Z,22.50
2018-09-23T01:08:54.474Z,22.39
2018-09-23T01:09:55.054Z,22.36
2018-09-23T01:10:55.685Z,22.43
2018-09-23T01:11:56.264Z,22.38
2018-09-23T01:12:56.895Z,22.44
2018-09-23T01:13:57.477Z,22.44
2018-09-23T01:14:58.056Z,22.43
2018-09-23T01:15:58.640Z,22.41
2018-09-23T01:16:59.219Z,22.45
2018-09-23T01:17:59.802Z,22.44
2018-09-23T01:19:00.428Z,22.48
2018-09-23T01:20:01.008Z,22.38
2018-09-23T01:21:01.590Z,22.45
2018-09-23T01:22:02.170Z,22.43
2018-09-23T01:23:02.751Z,22.48
2018-09-23T01:24:03.330Z,22.39
2018-09-23T01:25:03.912Z,22.44
2018-09-23T01:26:04.493Z,22.41
2018-09-23T01:27:05.073Z,22.38
2018-09-23T01:28:05.652Z,22.41
2018-09-23T01:29:06.233Z,22.36
2018-09-23T01:30:06.863Z,22.41
2018-09-23T01:31:07.450Z,22.43
2018-09-23T01:32:08.077Z,22.43
2018-09-23T01:33:08.659Z,22.35
2018-09-23T01:34:09.240Z,22.36
2018-09-23T01:35:09.873Z,22.35
2018-09-23T01:36:10.455Z,22.36
2018-09-23T01:37:11.037Z,22.35
2018-09-23T01:38:11.618Z,22.36
2018-09-23T01:39:12.197Z,22.38
2018-09-23T01:40:12.778Z,22.36
2018-09-23T01:41:13.361Z,22.41
2018-09-23T01:42:13.941Z,22.36
2018-09-23T01:43:14.517Z,22.44
2018-09-23T01:44:15.097Z,22.35
2018-09-23T01:45:15.677Z,22.33
2018-09-23T01:46:16.258Z,22.41
2018-09-23T01:48:01.406Z,22.36
2018-09-23T01:49:02.039Z,22.30
2018-09-23T01:50:02.617Z,22.36
2018-09-23T01:51:03.198Z,22.30
2018-09-23T01:52:03.779Z,22.25
2018-09-23T01:53:04.360Z,22.30
2018-09-23T01:54:04.985Z,22.29
2018-09-23T01:55:05.565Z,22.32
2018-09-23T01:56:06.145Z,22.29
2018-09-23T01:57:06.776Z,22.26
2018-09-23T01:58:07.357Z,22.23
2018-09-23T01:59:07.937Z,22.26
2018-09-23T02:00:08.567Z,22.26
2018-09-23T02:01:09.148Z,22.26
2018-09-23T02:02:09.728Z,22.28
2018-09-23T02:03:10.308Z,22.28
2018-09-23T02:04:10.889Z,22.22
2018-09-23T02:05:11.467Z,22.28
2018-09-23T02:06:12.050Z,22.22
2018-09-23T02:07:12.679Z,22.30
2018-09-23T02:08:13.260Z,22.28
2018-09-23T02:09:13.841Z,22.25
2018-09-23T02:10:14.471Z,22.26
2018-09-23T02:11:15.050Z,22.23
2018-09-23T02:12:15.630Z,22.26
2018-09-23T02:13:16.208Z,22.30
2018-09-23T02:14:16.838Z,22.22
2018-09-23T02:15:17.420Z,22.23
2018-09-23T02:16:18.002Z,22.29
2018-09-23T02:17:18.581Z,22.18
2018-09-23T02:18:19.209Z,22.23
2018-09-23T02:19:19.791Z,22.25
2018-09-23T02:20:20.376Z,22.25
2018-09-23T02:21:21.040Z,22.28
2018-09-23T02:22:21.579Z,22.20
2018-09-23T02:23:22.162Z,22.23
2018-09-23T02:24:22.739Z,22.18
2018-09-23T02:25:23.369Z,22.23
2018-09-23T02:26:23.951Z,22.23
2018-09-23T02:27:24.580Z,22.18
2018-09-23T02:28:25.209Z,22.11
2018-09-23T02:29:25.792Z,22.15
2018-09-23T02:30:26.370Z,22.10
2018-09-23T02:31:26.950Z,22.14
2018-09-23T02:32:27.586Z,22.13
2018-09-23T02:33:28.162Z,22.18
2018-09-23T02:34:28.743Z,22.11
2018-09-23T02:36:13.838Z,22.13
2018-09-23T02:37:14.418Z,22.14
2018-09-23T02:38:15.000Z,22.11
2018-09-23T02:39:15.624Z,22.13
2018-09-23T02:40:16.203Z,22.15
2018-09-23T02:41:16.783Z,22.18
2018-09-23T02:42:17.365Z,22.15
2018-09-23T02:43:17.947Z,22.14
2018-09-23T02:44:18.567Z,22.14
2018-09-23T02:45:19.147Z,22.11
2018-09-23T02:46:19.780Z,22.14
2018-09-23T02:47:20.358Z,22.14
2018-09-23T02:48:20.987Z,22.15
2018-09-23T02:49:21.619Z,22.11
2018-09-23T02:50:22.202Z,22.13
2018-09-23T02:51:22.819Z,22.18
2018-09-23T02:52:23.402Z,22.13
2018-09-23T02:53:29.072Z,22.18
2018-09-23T02:54:29.650Z,22.17
2018-09-23T02:55:30.231Z,22.13
2018-09-23T02:56:30.811Z,22.14
2018-09-23T02:57:31.391Z,22.10
2018-09-23T02:58:32.018Z,22.14
2018-09-23T02:59:32.599Z,22.08
2018-09-23T03:00:33.181Z,22.15
2018-09-23T03:01:33.802Z,22.13
2018-09-23T03:02:34.389Z,22.13
2018-09-23T03:03:35.005Z,22.15
2018-09-23T03:04:35.634Z,22.15
2018-09-23T03:05:36.217Z,22.14
2018-09-23T03:06:36.846Z,22.14
2018-09-23T03:07:37.478Z,22.14
2018-09-23T03:08:38.057Z,22.07
2018-09-23T03:09:38.638Z,22.10
2018-09-23T03:10:39.219Z,22.10
2018-09-23T03:11:39.799Z,22.07
2018-09-23T03:12:40.378Z,22.06
2018-09-23T03:13:40.957Z,22.13
2018-09-23T03:14:41.538Z,22.06
2018-09-23T03:15:42.118Z,22.06
2018-09-23T03:16:42.698Z,22.11
2018-09-23T03:17:43.280Z,22.04
2018-09-23T03:18:43.860Z,22.06
2018-09-23T03:19:44.439Z,22.14
2018-09-23T03:20:45.020Z,22.11
2018-09-23T03:21:45.601Z,22.14
2018-09-23T03:22:46.236Z,22.02
2018-09-23T03:24:31.376Z,22.10
2018-09-23T03:25:31.958Z,22.02
2018-09-23T03:26:32.539Z,22.10
2018-09-23T03:27:33.171Z,22.02
2018-09-23T03:28:33.753Z,22.10
2018-09-23T03:29:34.332Z,22.14
2018-09-23T03:30:34.982Z,22.13
2018-09-23T03:31:35.493Z,22.04
2018-09-23T03:32:36.075Z,22.07
2018-09-23T03:33:36.659Z,22.07
2018-09-23T03:34:37.292Z,22.06
2018-09-23T03:35:37.904Z,22.02
2018-09-23T03:36:38.482Z,22.04
2018-09-23T03:37:39.064Z,22.08
2018-09-23T03:38:39.643Z,22.02
2018-09-23T03:39:40.274Z,22.00
2018-09-23T03:40:40.853Z,22.07
2018-09-23T03:41:41.430Z,22.11
2018-09-23T03:42:42.059Z,22.07
2018-09-23T03:43:42.640Z,22.07
2018-09-23T03:44:43.220Z,22.07
2018-09-23T03:45:43.849Z,22.11
2018-09-23T03:46:44.432Z,22.07
2018-09-23T03:47:45.014Z,22.04
2018-09-23T03:48:45.592Z,22.07
2018-09-23T03:49:46.173Z,22.10
2018-09-23T03:50:46.753Z,22.02
2018-09-23T03:51:47.333Z,22.11
2018-09-23T03:52:47.915Z,22.06
2018-09-23T03:53:48.534Z,22.06
2018-09-23T03:54:49.114Z,22.00
2018-09-23T03:55:49.696Z,22.08
2018-09-23T03:56:50.330Z,22.08
2018-09-23T03:57:50.897Z,22.00
2018-09-23T03:58:51.588Z,22.04
2018-09-23T03:59:52.170Z,21.98
2018-09-23T04:00:52.953Z,21.99
2018-09-23T04:01:53.531Z,22.02
2018-09-23T04:02:54.163Z,21.96
2018-09-23T04:03:54.743Z,21.96
2018-09-23T04:04:55.321Z,21.95
2018-09-23T04:05:55.902Z,21.87
2018-09-23T04:06:56.481Z,22.02
2018-09-23T04:07:57.062Z,21.95
2018-09-23T04:08:57.644Z,21.92
2018-09-23T04:09:58.225Z,21.92
2018-09-23T04:10:58.854Z,22.00
2018-09-23T04:12:43.984Z,21.89
2018-09-23T04:13:44.565Z,21.93
2018-09-23T04:14:45.159Z,21.91
2018-09-23T04:15:45.773Z,21.92
2018-09-23T04:16:46.352Z,22.06
2018-09-23T04:17:46.988Z,21.91
2018-09-23T04:18:47.608Z,21.89
2018-09-23T04:19:48.241Z,22.02
2018-09-23T04:20:48.864Z,22.04
2018-09-23T04:21:49.445Z,21.92
2018-09-23T04:22:50.027Z,22.02
2018-09-23T04:23:50.606Z,21.87
2018-09-23T04:24:51.235Z,21.92
2018-09-23T04:25:51.818Z,21.98
2018-09-23T04:26:52.397Z,21.96
2018-09-23T04:27:52.976Z,22.02
2018-09-23T04:28:53.556Z,21.89
2018-09-23T04:29:54.133Z,21.87
2018-09-23T04:30:54.712Z,21.92
2018-09-23T04:31:55.292Z,21.89
2018-09-23T04:32:55.872Z,21.93
2018-09-23T04:33:56.450Z,21.98
2018-09-23T04:34:57.080Z,21.89
2018-09-23T04:35:57.660Z,21.92
2018-09-23T04:36:58.242Z,21.85
2018-09-23T04:37:58.873Z,21.87
2018-09-23T04:38:59.450Z,21.89
2018-09-23T04:40:00.031Z,21.89
2018-09-23T04:41:00.660Z,21.89
2018-09-23T04:42:01.239Z,21.89
2018-09-23T04:43:01.819Z,21.87
2018-09-23T04:44:02.399Z,21.89
2018-09-23T04:45:03.031Z,21.91
2018-09-23T04:46:03.560Z,21.96
2018-09-23T04:47:04.146Z,21.87
2018-09-23T04:48:04.723Z,21.91
2018-09-23T04:49:05.331Z,21.89
2018-09-23T04:50:05.928Z,21.93
2018-09-23T04:51:06.508Z,21.87
2018-09-23T04:52:07.087Z,21.91
2018-09-23T04:53:07.665Z,21.82
2018-09-23T04:54:08.296Z,21.80
2018-09-23T04:55:08.926Z,21.80
2018-09-23T04:56:09.456Z,21.93
2018-09-23T04:57:10.037Z,21.79
2018-09-23T04:58:10.617Z,21.92
2018-09-23T04:59:11.204Z,21.95
2018-09-23T05:00:56.340Z,21.82
2018-09-23T05:01:56.971Z,21.92
2018-09-23T05:02:57.550Z,21.91
2018-09-23T05:03:58.131Z,21.85
2018-09-23T05:04:58.711Z,21.92
2018-09-23T05:05:59.290Z,21.85
2018-09-23T05:06:59.873Z,21.91
2018-09-23T05:08:00.452Z,21.92
2018-09-23T05:09:01.032Z,21.89
2018-09-23T05:10:01.662Z,21.82
2018-09-23T05:11:02.242Z,21.87
2018-09-23T05:12:02.819Z,21.92
2018-09-23T05:13:03.397Z,21.92
2018-09-23T05:14:04.042Z,21.92
2018-09-23T05:15:04.596Z,21.92
2018-09-23T05:16:05.173Z,21.82
2018-09-23T05:17:05.801Z,21.87
2018-09-23T05:18:06.383Z,21.91
2018-09-23T05:19:06.960Z,21.85
2018-09-23T05:20:07.591Z,21.82
2018-09-23T05:21:08.171Z,21.92
2018-09-23T05:22:08.750Z,21.89
2018-09-23T05:23:09.381Z,21.85
2018-09-23T05:24:09.961Z,21.89
2018-09-23T05:25:10.592Z,21.83
2018-09-23T05:26:11.173Z,21.77
2018-09-23T05:27:11.752Z,21.76
2018-09-23T05:28:12.338Z,21.83
2018-09-23T05:29:12.914Z,21.85
2018-09-23T05:30:13.493Z,21.89
2018-09-23T05:31:14.225Z,21.77
2018-09-23T05:32:14.801Z,21.80
2018-09-23T05:33:15.382Z,21.87
2018-09-23T05:34:15.965Z,21.80
2018-09-23T05:35:16.578Z,21.80
2018-09-23T05:36:17.128Z,21.80
2018-09-23T05:37:17.759Z,21.80
2018-09-23T05:38:18.339Z,21.82
2018-09-23T05:39:18.963Z,21.80
2018-09-23T05:40:19.541Z,21.80
2018-09-23T05:41:20.121Z,21.82
2018-09-23T05:42:20.703Z,21.77
2018-09-23T05:43:21.278Z,21.87
2018-09-23T05:44:21.859Z,21.80
2018-09-23T05:45:22.439Z,21.80
2018-09-23T05:46:23.069Z,21.79
2018-09-23T05:47:23.649Z,21.80
2018-09-23T05:49:08.795Z,21.82
2018-09-23T05:50:09.376Z,21.82
2018-09-23T05:51:09.959Z,21.75
2018-09-23T05:52:10.537Z,21.82
2018-09-23T05:53:11.160Z,21.80
2018-09-23T05:54:11.743Z,21.77
2018-09-23T05:55:12.328Z,21.76
2018-09-23T05:56:12.904Z,21.77
2018-09-23T05:57:13.486Z,21.75
2018-09-23T05:58:14.109Z,21.76
2018-09-23T05:59:14.686Z,21.77
2018-09-23T06:00:15.266Z,21.73
2018-09-23T06:01:15.889Z,21.76
2018-09-23T06:02:16.557Z,21.73
2018-09-23T06:03:17.227Z,21.75
2018-09-23T06:04:17.718Z,21.73
2018-09-23T06:05:18.296Z,21.73
2018-09-23T06:06:18.925Z,21.75
2018-09-23T06:07:19.553Z,21.75
2018-09-23T06:08:20.134Z,21.73
2018-09-23T06:09:20.713Z,21.70
2018-09-23T06:10:21.291Z,21.70
2018-09-23T06:11:21.871Z,21.72
2018-09-23T06:12:22.448Z,21.77
2018-09-23T06:13:23.078Z,21.77
2018-09-23T06:14:23.658Z,21.75
2018-09-23T06:15:24.238Z,21.72
2018-09-23T06:16:24.820Z,21.69
2018-09-23T06:17:25.749Z,21.73
2018-09-23T06:18:26.434Z,21.75
2018-09-23T06:19:26.960Z,21.69
2018-09-23T06:20:27.540Z,21.70
2018-09-23T06:21:28.122Z,21.72
2018-09-23T06:22:28.751Z,21.73
2018-09-23T06:23:29.383Z,21.76
2018-09-23T06:24:29.962Z,21.67
2018-09-23T06:25:30.542Z,21.73
2018-09-23T06:26:31.121Z,21.66
2018-09-23T06:27:31.703Z,21.57
2018-09-23T06:28:32.331Z,21.61
2018-09-23T06:29:32.964Z,21.66
2018-09-23T06:30:33.544Z,21.58
2018-09-23T06:31:34.122Z,21.60
2018-09-23T06:32:34.703Z,21.54
2018-09-23T06:33:35.333Z,21.58
2018-09-23T06:34:35.913Z,21.67
2018-09-23T06:35:36.491Z,21.61
2018-09-23T06:37:21.588Z,21.69
2018-09-23T06:38:22.168Z,21.61
2018-09-23T06:39:22.749Z,21.66
2018-09-23T06:40:23.334Z,21.69
2018-09-23T06:41:23.953Z,21.61
2018-09-23T06:42:24.532Z,21.52
2018-09-23T06:43:25.162Z,21.70
2018-09-23T06:44:25.742Z,21.70
2018-09-23T06:45:26.324Z,21.61
2018-09-23T06:46:26.904Z,21.69
2018-09-23T06:47:27.484Z,21.67
2018-09-23T06:48:28.118Z,21.60
2018-09-23T06:49:28.737Z,21.64
2018-09-23T06:50:29.366Z,21.58
2018-09-23T06:51:29.945Z,21.58
2018-09-23T06:52:30.523Z,21.58
2018-09-23T06:53:31.103Z,21.64
2018-09-23T06:54:31.682Z,21.64
2018-09-23T06:55:32.312Z,21.60
2018-09-23T06:56:32.892Z,21.60
2018-09-23T06:57:33.473Z,21.57
2018-09-23T06:58:34.050Z,21.60
2018-09-23T06:59:34.679Z,21.58
2018-09-23T07:00:35.258Z,21.61
2018-09-23T07:01:35.838Z,21.60
2018-09-23T07:02:36.418Z,21.55
2018-09-23T07:03:36.997Z,21.58
2018-09-23T07:04:37.705Z,21.64
2018-09-23T07:05:38.296Z,21.62
2018-09-23T07:06:38.876Z,21.57
2018-09-23T07:07:39.456Z,21.60
2018-09-23T07:08:40.037Z,21.61
2018-09-23T07:09:40.617Z,21.60
2018-09-23T07:10:41.197Z,21.57
2018-09-23T07:11:41.777Z,21.57
2018-09-23T07:12:42.358Z,21.60
2018-09-23T07:13:42.991Z,21.60
2018-09-23T07:14:43.607Z,21.60
2018-09-23T07:15:44.189Z,21.61
2018-09-23T07:16:44.810Z,21.60
2018-09-23T07:17:45.441Z,21.57
2018-09-23T07:18:46.061Z,21.58
2018-09-23T07:19:46.641Z,21.57
2018-09-23T07:20:47.221Z,21.62
2018-09-23T07:21:47.803Z,21.58
2018-09-23T07:22:48.433Z,21.60
2018-09-23T07:23:49.093Z,21.61
2018-09-23T07:25:34.159Z,21.60
2018-09-23T07:26:34.740Z,21.60
2018-09-23T07:27:35.321Z,21.57
2018-09-23T07:28:35.897Z,21.61
2018-09-23T07:29:36.478Z,21.57
2018-09-23T07:30:37.099Z,21.58
2018-09-23T07:31:37.680Z,21.52
2018-09-23T07:32:38.259Z,21.55
2018-09-23T07:33:38.890Z,21.57
2018-09-23T07:34:39.470Z,21.62
2018-09-23T07:35:40.050Z,21.52
2018-09-23T07:36:40.636Z,21.55
2018-09-23T07:37:41.216Z,21.58
2018-09-23T07:38:41.843Z,21.55
2018-09-23T07:39:42.470Z,21.52
2018-09-23T07:40:43.040Z,21.51
2018-09-23T07:41:43.620Z,21.55
2018-09-23T07:42:44.397Z,21.52
2018-09-23T07:43:44.976Z,21.55
2018-09-23T07:44:45.709Z,21.55
2018-09-23T07:45:46.289Z,21.54
2018-09-23T07:46:46.866Z,21.52
2018-09-23T07:47:47.445Z,21.52
2018-09-23T07:48:48.074Z,21.51
2018-09-23T07:49:48.655Z,21.48
2018-09-23T07:50:49.278Z,21.51
2018-09-23T07:51:49.857Z,21.52
2018-09-23T07:52:50.438Z,21.55
2018-09-23T07:53:51.017Z,21.55
2018-09-23T07:54:51.598Z,21.52
2018-09-23T07:55:52.175Z,21.50
2018-09-23T07:56:52.759Z,21.50
2018-09-23T07:57:53.334Z,21.52
2018-09-23T07:58:53.919Z,21.54
2018-09-23T07:59:54.592Z,21.54
2018-09-23T08:00:55.221Z,21.57
2018-09-23T08:01:55.802Z,21.57
2018-09-23T08:02:56.383Z,21.60
2018-09-23T08:03:56.963Z,21.58
2018-09-23T08:04:57.544Z,21.57
2018-09-23T08:05:58.122Z,21.57
2018-09-23T08:06:58.756Z,21.58
2018-09-23T08:07:59.377Z,21.58
2018-09-23T08:08:59.955Z,21.62
2018-09-23T08:10:00.536Z,21.58
2018-09-23T08:11:01.115Z,21.62
2018-09-23T08:12:01.694Z,21.61
2018-09-23T08:13:46.933Z,21.60
2018-09-23T08:14:47.713Z,21.57
2018-09-23T08:15:47.948Z,21.58
2018-09-23T08:16:48.530Z,21.61
2018-09-23T08:17:49.109Z,21.62
2018-09-23T08:18:49.688Z,21.57
2018-09-23T08:19:50.359Z,21.61
2018-09-23T08:20:50.967Z,21.60
2018-09-23T08:21:51.483Z,21.60
2018-09-23T08:22:52.147Z,21.58
2018-09-23T08:23:52.782Z,21.57
2018-09-23T08:24:53.361Z,21.58
2018-09-23T08:25:53.940Z,21.60
2018-09-23T08:26:54.520Z,21.57
2018-09-23T08:27:55.098Z,21.60
2018-09-23T08:28:55.677Z,21.62
2018-09-23T08:29:56.255Z,21.60
2018-09-23T08:30:56.835Z,21.60
2018-09-23T08:31:57.414Z,21.64
2018-09-23T08:32:58.027Z,21.60
2018-09-23T08:33:58.615Z,21.60
2018-09-23T08:34:59.196Z,21.62
2018-09-23T08:35:59.776Z,21.57
2018-09-23T08:37:00.404Z,21.58
2018-09-23T08:38:01.080Z,21.60
2018-09-23T08:39:01.655Z,21.57
2018-09-23T08:40:02.275Z,21.64
2018-09-23T08:41:02.816Z,21.60
2018-09-23T08:42:03.395Z,21.57
2018-09-23T08:43:03.989Z,21.58
2018-09-23T08:44:04.552Z,21.61
2018-09-23T08:45:05.133Z,21.61
2018-09-23T08:46:05.713Z,21.57
2018-09-23T08:47:06.343Z,21.61
2018-09-23T08:48:07.023Z,21.60
2018-09-23T08:49:07.504Z,21.60
2018-09-23T08:50:08.084Z,21.60
2018-09-23T08:51:08.663Z,21.58
2018-09-23T08:52:09.289Z,21.64
2018-09-23T08:53:09.870Z,21.66
2018-09-23T08:54:10.451Z,21.60
2018-09-23T08:55:11.082Z,21.60
2018-09-23T08:56:11.660Z,21.61
2018-09-23T08:57:12.241Z,21.62
2018-09-23T08:58:12.825Z,21.58
2018-09-23T08:59:13.445Z,21.60
2018-09-23T09:00:14.027Z,21.62
2018-09-23T09:01:59.121Z,21.52
2018-09-23T09:02:59.900Z,21.62
2018-09-23T09:04:00.480Z,21.58
2018-09-23T09:05:01.061Z,21.60
2018-09-23T09:06:01.648Z,21.62
2018-09-23T09:07:02.219Z,21.66
2018-09-23T09:08:02.799Z,21.62
2018-09-23T09:09:03.380Z,21.57
2018-09-23T09:10:03.959Z,21.67
2018-09-23T09:11:04.540Z,21.55
2018-09-23T09:12:05.171Z,21.55
2018-09-23T09:13:05.798Z,21.69
2018-09-23T09:14:06.380Z,21.64
2018-09-23T09:15:06.960Z,21.70
2018-09-23T09:16:07.538Z,21.58
2018-09-23T09:17:08.117Z,21.61
2018-09-23T09:18:08.721Z,21.46
2018-09-23T09:19:09.331Z,21.52
2018-09-23T09:20:09.953Z,21.57
2018-09-23T09:21:10.537Z,21.48
2018-09-23T09:22:11.120Z,21.54
2018-09-23T09:23:11.854Z,21.46
2018-09-23T09:24:12.439Z,21.48
2018-09-23T09:25:13.020Z,21.45
2018-09-23T09:26:13.609Z,21.48
2018-09-23T09:27:14.234Z,21.43
2018-09-23T09:28:14.822Z,21.40
2018-09-23T09:29:15.454Z,21.43
2018-09-23T09:30:16.037Z,21.48
2018-09-23T09:31:16.621Z,21.46
2018-09-23T09:32:17.206Z,21.43
2018-09-23T09:33:17.791Z,21.42
2018-09-23T09:34:18.379Z,21.45
2018-09-23T09:35:18.993Z,21.42
2018-09-23T09:36:19.546Z,21.42
2018-09-23T09:37:20.138Z,21.33
2018-09-23T09:38:20.830Z,21.33
2018-09-23T09:39:21.491Z,21.42
2018-09-23T09:40:22.074Z,21.37
2018-09-23T09:41:22.708Z,21.51
2018-09-23T09:42:23.292Z,21.48
2018-09-23T09:43:23.880Z,21.54
2018-09-23T09:44:24.473Z,21.60
2018-09-23T09:45:25.050Z,21.62
2018-09-23T09:46:25.685Z,21.73
2018-09-23T09:47:26.272Z,21.75
2018-09-23T09:48:26.859Z,21.73
2018-09-23T09:50:11.958Z,21.73
2018-09-23T09:51:12.544Z,21.72
2018-09-23T09:52:13.130Z,21.80
2018-09-23T09:53:13.717Z,21.83
2018-09-23T09:54:14.302Z,21.93
2018-09-23T09:55:14.964Z,21.87
2018-09-23T09:56:15.522Z,21.98
2018-09-23T09:57:16.109Z,22.04
2018-09-23T09:58:16.694Z,22.08
2018-09-23T09:59:17.330Z,22.13
2018-09-23T10:00:17.916Z,22.14
2018-09-23T10:01:18.499Z,22.29
2018-09-23T10:02:19.088Z,22.28
2018-09-23T10:03:19.671Z,22.39
2018-09-23T10:04:20.327Z,22.43
2018-09-23T10:05:20.842Z,22.54
2018-09-23T10:06:21.427Z,22.55
2018-09-23T10:07:22.011Z,22.62
2018-09-23T10:08:22.594Z,22.59
2018-09-23T10:09:23.232Z,22.66
2018-09-23T10:10:23.816Z,22.73
2018-09-23T10:11:24.460Z,22.70
2018-09-23T10:12:24.988Z,22.78
2018-09-23T10:13:25.623Z,22.76
2018-09-23T10:14:26.211Z,22.84
2018-09-23T10:15:26.840Z,22.85
2018-09-23T10:16:27.430Z,22.98
2018-09-23T10:17:28.011Z,22.91
2018-09-23T10:18:28.598Z,22.91
2018-09-23T10:19:29.187Z,22.98
2018-09-23T10:20:29.769Z,23.03
2018-09-23T10:21:30.409Z,23.00
2018-09-23T10:22:31.007Z,22.99
2018-09-23T10:23:31.660Z,23.06
2018-09-23T10:24:32.173Z,23.15
2018-09-23T10:25:32.763Z,23.25
2018-09-23T10:26:33.350Z,23.10
2018-09-23T10:27:33.938Z,23.13
2018-09-23T10:28:34.528Z,23.17
2018-09-23T10:29:35.165Z,23.24
2018-09-23T10:30:35.752Z,23.27
2018-09-23T10:31:36.374Z,23.34
2018-09-23T10:32:36.980Z,23.31
2018-09-23T10:33:37.572Z,23.40
2018-09-23T10:34:38.164Z,23.46
2018-09-23T10:35:38.754Z,23.48
2018-09-23T10:36:39.349Z,23.46
2018-09-23T10:38:24.451Z,23.63
2018-09-23T10:39:25.044Z,23.69
2018-09-23T10:40:25.640Z,23.76
2018-09-23T10:41:26.261Z,23.74
2018-09-23T10:44:14.298Z,23.98
2018-09-23T10:45:14.883Z,23.99
2018-09-23T10:47:17.054Z,24.02
2018-09-23T10:49:19.331Z,24.20
2018-09-23T10:50:19.926Z,24.29
2018-09-23T10:52:41.333Z,24.40
2018-09-23T10:54:43.510Z,24.53
2018-09-23T10:55:44.154Z,24.60
2018-09-23T10:56:44.702Z,24.61
2018-09-23T10:57:45.299Z,24.65
2018-09-23T10:58:45.895Z,24.77
2018-09-23T10:59:46.489Z,24.85
2018-09-23T11:00:47.087Z,24.99
2018-09-23T11:01:47.682Z,25.07
2018-09-23T11:02:48.280Z,25.23
2018-09-23T11:03:48.966Z,25.38
2018-09-23T11:04:49.568Z,25.38
2018-09-23T11:05:50.164Z,25.51
2018-09-23T11:06:50.760Z,25.62
2018-09-23T11:07:51.371Z,25.81
2018-09-23T11:08:51.998Z,25.81
2018-09-23T11:09:52.696Z,26.00
2018-09-23T11:10:53.289Z,26.07
2018-09-23T11:11:53.888Z,26.13
2018-09-23T11:12:54.488Z,26.31
2018-09-23T11:13:55.130Z,26.43
2018-09-23T11:14:55.726Z,26.38
2018-09-23T11:15:56.323Z,26.63
2018-09-23T11:16:56.923Z,26.60
2018-09-23T11:17:57.572Z,26.71
2018-09-23T11:18:58.170Z,26.81
2018-09-23T11:19:58.770Z,26.85
2018-09-23T11:20:59.368Z,26.89
2018-09-23T11:21:59.969Z,27.02
2018-09-23T11:23:14.399Z,27.12
2018-09-23T11:26:32.409Z,27.42
2018-09-23T11:28:34.642Z,27.60
2018-09-23T11:29:49.048Z,27.80
2018-09-23T11:34:54.356Z,28.42
2018-09-23T11:35:55.008Z,28.66
2018-09-23T11:37:57.189Z,28.82
2018-09-23T11:38:57.782Z,29.05
2018-09-23T11:39:58.428Z,29.20
2018-09-23T11:40:58.970Z,29.38
2018-09-23T11:41:59.566Z,29.53
2018-09-23T11:43:00.223Z,29.66
2018-09-23T11:44:00.765Z,29.73
2018-09-23T11:45:01.372Z,29.90
2018-09-23T11:46:01.969Z,29.95
2018-09-23T11:47:02.573Z,30.13
2018-09-23T11:48:03.181Z,30.24
2018-09-23T11:49:03.775Z,30.25
2018-09-23T11:50:04.417Z,30.39
2018-09-23T11:51:05.020Z,30.46
2018-09-23T11:52:05.621Z,30.48
2018-09-23T11:53:06.271Z,30.62
2018-09-23T11:54:06.875Z,30.63
2018-09-23T11:55:07.526Z,30.65
2018-09-23T11:56:08.178Z,30.69
2018-09-23T11:57:08.780Z,30.72
2018-09-23T11:58:09.381Z,30.69
2018-09-23T11:59:09.985Z,30.81
2018-09-23T12:00:10.592Z,30.83
2018-09-23T12:01:11.194Z,30.87
2018-09-23T12:02:11.812Z,30.81
2018-09-23T12:03:12.595Z,30.77
2018-09-23T12:04:13.195Z,30.80
2018-09-23T12:05:13.797Z,30.81
2018-09-23T12:06:14.442Z,30.85
2018-09-23T12:07:15.046Z,30.97
2018-09-23T12:08:15.689Z,31.17
2018-09-23T12:09:16.301Z,31.36
2018-09-23T12:10:16.977Z,31.42
2018-09-23T12:11:17.552Z,31.59
2018-09-23T12:12:18.155Z,31.69
2018-09-23T12:13:18.795Z,31.78
2018-09-23T12:14:19.451Z,31.92
2018-09-23T12:15:20.050Z,31.96
2018-09-23T12:16:20.659Z,32.16
2018-09-23T12:17:21.302Z,32.23
2018-09-23T12:18:21.903Z,32.36
2018-09-23T12:19:22.505Z,32.30
2018-09-23T12:20:23.108Z,32.45
2018-09-23T12:21:23.708Z,32.40
2018-09-23T12:23:08.825Z,32.51
2018-09-23T12:24:09.433Z,32.51
2018-09-23T12:25:10.072Z,32.41
2018-09-23T12:26:10.672Z,32.41
2018-09-23T12:27:11.274Z,32.38
2018-09-23T12:28:11.874Z,32.43
2018-09-23T12:29:12.474Z,32.21
2018-09-23T12:31:14.658Z,31.74
2018-09-23T12:32:15.300Z,31.58
2018-09-23T12:33:29.929Z,31.21
2018-09-23T12:34:30.532Z,31.12
2018-09-23T12:35:31.183Z,30.84
2018-09-23T12:36:31.782Z,30.70
2018-09-23T12:37:32.434Z,30.47
2018-09-23T12:38:33.032Z,30.13
2018-09-23T12:39:33.715Z,29.93
2018-09-23T12:40:34.230Z,29.82
2018-09-23T12:41:34.827Z,29.63
2018-09-23T12:42:35.425Z,29.47
2018-09-23T12:43:36.025Z,29.29
2018-09-23T12:45:38.204Z,28.91
2018-09-23T12:46:38.799Z,28.85
2018-09-23T12:47:39.396Z,28.70
2018-09-23T12:48:39.999Z,28.56
2018-09-23T12:49:40.637Z,28.51
2018-09-23T12:50:41.234Z,28.33
2018-09-23T12:51:41.829Z,28.29
2018-09-23T12:52:42.473Z,28.23
2018-09-23T12:53:43.070Z,28.10
2018-09-23T12:55:17.505Z,28.01
2018-09-23T12:56:18.096Z,27.82
2018-09-23T12:58:04.562Z,27.87
2018-09-23T12:59:05.159Z,27.85
2018-09-23T13:00:05.759Z,27.98
2018-09-23T13:01:06.400Z,28.07
2018-09-23T13:02:06.998Z,28.49
2018-09-23T13:03:07.596Z,29.45
2018-09-23T13:04:08.194Z,30.37
2018-09-23T13:05:08.799Z,31.24
2018-09-23T13:06:09.396Z,31.92
2018-09-23T13:07:09.996Z,32.41
2018-09-23T13:08:10.597Z,32.74
2018-09-23T13:09:11.194Z,33.28
2018-09-23T13:10:11.882Z,33.58
2018-09-23T13:11:12.486Z,33.77
2018-09-23T13:12:13.077Z,33.98
2018-09-23T13:13:13.676Z,34.06
2018-09-23T13:14:14.329Z,34.16
2018-09-23T13:15:14.926Z,34.32
2018-09-23T13:16:15.574Z,34.47
2018-09-23T13:17:16.173Z,34.54
2018-09-23T13:18:16.832Z,34.66
2018-09-23T13:19:31.174Z,34.77
2018-09-23T13:20:31.739Z,34.78
2018-09-23T13:21:32.379Z,34.95
2018-09-23T13:22:32.985Z,34.89
2018-09-23T13:23:33.625Z,34.93
2018-09-23T13:24:34.227Z,34.96
2018-09-23T13:25:34.828Z,34.99
2018-09-23T13:26:35.478Z,35.02
2018-09-23T13:27:36.078Z,35.02
2018-09-23T13:28:36.681Z,35.14
2018-09-23T13:29:37.283Z,35.08
2018-09-23T13:30:37.883Z,35.31